sensor_id;sensor_type;location;lat;lon;timestamp;P1;durP1;ratioP1;P2;durP2;ratioP2
7693;SDS011;3889;48.162;11.510;2023-01-10T00:01:38;1.85;;;1.75;;
7693;SDS011;3889;48.162;11.510;2023-01-10T00:04:06;2.20;;;1.80;;
7693;SDS011;3889;48.162;11.510;2023-01-10T00:06:35;1.90;;;1.80;;
7693;SDS011;3889;48.162;11.510;2023-01-10T00:09:03;2.00;;;1.90;;
7693;SDS011;3889;48.162;11.510;2023-01-10T00:11:31;2.22;;;2.03;;
7693;SDS011;3889;48.162;11.510;2023-01-10T00:14:17;2.00;;;1.90;;
7693;SDS011;3889;48.162;11.510;2023-01-10T00:16:45;1.80;;;1.70;;
7693;SDS011;3889;48.162;11.510;2023-01-10T00:19:13;2.20;;;2.00;;
7693;SDS011;3889;48.162;11.510;2023-01-10T00:21:43;2.53;;;2.05;;
7693;SDS011;3889;48.162;11.510;2023-01-10T00:24:11;2.10;;;1.88;;
7693;SDS011;3889;48.162;11.510;2023-01-10T00:26:44;1.90;;;1.80;;
7693;SDS011;3889;48.162;11.510;2023-01-10T00:29:16;1.83;;;1.70;;
7693;SDS011;3889;48.162;11.510;2023-01-10T00:31:44;1.63;;;1.53;;
7693;SDS011;3889;48.162;11.510;2023-01-10T00:34:12;2.40;;;1.92;;
7693;SDS011;3889;48.162;11.510;2023-01-10T00:36:42;2.00;;;1.80;;
7693;SDS011;3889;48.162;11.510;2023-01-10T00:39:12;1.95;;;1.85;;
7693;SDS011;3889;48.162;11.510;2023-01-10T00:41:40;1.80;;;1.70;;
7693;SDS011;3889;48.162;11.510;2023-01-10T00:44:26;1.65;;;1.50;;
7693;SDS011;3889;48.162;11.510;2023-01-10T00:46:53;1.95;;;1.75;;
7693;SDS011;3889;48.162;11.510;2023-01-10T00:49:21;3.03;;;1.98;;
7693;SDS011;3889;48.162;11.510;2023-01-10T00:51:51;2.77;;;1.83;;
7693;SDS011;3889;48.162;11.510;2023-01-10T00:54:23;2.70;;;2.20;;
7693;SDS011;3889;48.162;11.510;2023-01-10T00:56:51;2.70;;;1.60;;
7693;SDS011;3889;48.162;11.510;2023-01-10T00:59:19;1.67;;;1.58;;
7693;SDS011;3889;48.162;11.510;2023-01-10T01:01:47;1.50;;;1.40;;
7693;SDS011;3889;48.162;11.510;2023-01-10T01:04:15;1.90;;;1.65;;
7693;SDS011;3889;48.162;11.510;2023-01-10T01:06:43;2.25;;;1.60;;
7693;SDS011;3889;48.162;11.510;2023-01-10T01:09:14;2.13;;;1.80;;
7693;SDS011;3889;48.162;11.510;2023-01-10T01:11:42;1.50;;;1.40;;
7693;SDS011;3889;48.162;11.510;2023-01-10T01:14:10;1.50;;;1.40;;
7693;SDS011;3889;48.162;11.510;2023-01-10T01:16:38;2.55;;;1.60;;
7693;SDS011;3889;48.162;11.510;2023-01-10T01:19:06;1.70;;;1.58;;
7693;SDS011;3889;48.162;11.510;2023-01-10T01:21:34;2.45;;;1.63;;
7693;SDS011;3889;48.162;11.510;2023-01-10T01:24:02;2.60;;;1.80;;
7693;SDS011;3889;48.162;11.510;2023-01-10T01:26:32;2.45;;;1.65;;
7693;SDS011;3889;48.162;11.510;2023-01-10T01:29:00;2.30;;;1.70;;
7693;SDS011;3889;48.162;11.510;2023-01-10T01:31:28;2.00;;;1.77;;
7693;SDS011;3889;48.162;11.510;2023-01-10T01:33:56;2.30;;;2.00;;
7693;SDS011;3889;48.162;11.510;2023-01-10T01:36:24;2.60;;;1.80;;
7693;SDS011;3889;48.162;11.510;2023-01-10T01:38:52;2.55;;;1.50;;
7693;SDS011;3889;48.162;11.510;2023-01-10T01:41:20;1.77;;;1.67;;
7693;SDS011;3889;48.162;11.510;2023-01-10T01:44:09;2.47;;;1.60;;
7693;SDS011;3889;48.162;11.510;2023-01-10T01:46:43;2.53;;;1.55;;
7693;SDS011;3889;48.162;11.510;2023-01-10T01:49:14;2.28;;;1.58;;
7693;SDS011;3889;48.162;11.510;2023-01-10T01:51:46;2.08;;;1.80;;
7693;SDS011;3889;48.162;11.510;2023-01-10T01:54:18;2.90;;;1.60;;
7693;SDS011;3889;48.162;11.510;2023-01-10T01:56:46;1.85;;;1.50;;
7693;SDS011;3889;48.162;11.510;2023-01-10T01:59:22;2.22;;;1.42;;
7693;SDS011;3889;48.162;11.510;2023-01-10T02:01:53;2.63;;;1.58;;
7693;SDS011;3889;48.162;11.510;2023-01-10T02:04:25;2.97;;;1.60;;
7693;SDS011;3889;48.162;11.510;2023-01-10T02:06:55;2.00;;;1.75;;
7693;SDS011;3889;48.162;11.510;2023-01-10T02:09:26;2.05;;;1.50;;
7693;SDS011;3889;48.162;11.510;2023-01-10T02:11:58;2.78;;;1.70;;
7693;SDS011;3889;48.162;11.510;2023-01-10T02:14:28;2.50;;;1.60;;
7693;SDS011;3889;48.162;11.510;2023-01-10T02:16:58;2.55;;;1.75;;
7693;SDS011;3889;48.162;11.510;2023-01-10T02:19:28;3.20;;;1.67;;
7693;SDS011;3889;48.162;11.510;2023-01-10T02:22:25;1.85;;;1.70;;
7693;SDS011;3889;48.162;11.510;2023-01-10T02:28:29;2.03;;;1.70;;
7693;SDS011;3889;48.162;11.510;2023-01-10T02:31:30;2.47;;;1.80;;
7693;SDS011;3889;48.162;11.510;2023-01-10T02:34:13;2.53;;;1.60;;
7693;SDS011;3889;48.162;11.510;2023-01-10T02:36:53;2.33;;;1.70;;
7693;SDS011;3889;48.162;11.510;2023-01-10T02:39:28;2.33;;;1.73;;
7693;SDS011;3889;48.162;11.510;2023-01-10T02:42:01;2.35;;;1.70;;
7693;SDS011;3889;48.162;11.510;2023-01-10T02:44:33;1.83;;;1.50;;
7693;SDS011;3889;48.162;11.510;2023-01-10T02:47:07;2.10;;;1.50;;
7693;SDS011;3889;48.162;11.510;2023-01-10T02:49:41;3.40;;;1.73;;
7693;SDS011;3889;48.162;11.510;2023-01-10T02:52:10;1.80;;;1.40;;
7693;SDS011;3889;48.162;11.510;2023-01-10T02:54:39;1.45;;;1.20;;
7693;SDS011;3889;48.162;11.510;2023-01-10T02:57:27;2.47;;;1.38;;
7693;SDS011;3889;48.162;11.510;2023-01-10T03:00:11;2.03;;;1.45;;
7693;SDS011;3889;48.162;11.510;2023-01-10T03:02:56;1.52;;;1.33;;
7693;SDS011;3889;48.162;11.510;2023-01-10T03:05:41;2.10;;;1.40;;
7693;SDS011;3889;48.162;11.510;2023-01-10T03:08:22;1.33;;;1.23;;
7693;SDS011;3889;48.162;11.510;2023-01-10T03:10:57;2.10;;;1.50;;
7693;SDS011;3889;48.162;11.510;2023-01-10T03:13:28;1.52;;;1.20;;
7693;SDS011;3889;48.162;11.510;2023-01-10T03:16:00;1.40;;;1.30;;
7693;SDS011;3889;48.162;11.510;2023-01-10T03:18:31;2.10;;;1.40;;
7693;SDS011;3889;48.162;11.510;2023-01-10T03:21:05;1.77;;;1.30;;
7693;SDS011;3889;48.162;11.510;2023-01-10T03:23:35;2.50;;;1.40;;
7693;SDS011;3889;48.162;11.510;2023-01-10T03:26:06;1.75;;;1.20;;
7693;SDS011;3889;48.162;11.510;2023-01-10T03:28:38;1.40;;;1.30;;
7693;SDS011;3889;48.162;11.510;2023-01-10T03:31:12;1.77;;;1.60;;
7693;SDS011;3889;48.162;11.510;2023-01-10T03:33:43;1.80;;;1.40;;
7693;SDS011;3889;48.162;11.510;2023-01-10T03:36:16;1.30;;;1.20;;
7693;SDS011;3889;48.162;11.510;2023-01-10T03:38:53;1.35;;;1.25;;
7693;SDS011;3889;48.162;11.510;2023-01-10T03:41:25;1.40;;;1.30;;
7693;SDS011;3889;48.162;11.510;2023-01-10T03:44:03;1.90;;;1.40;;
7693;SDS011;3889;48.162;11.510;2023-01-10T03:46:59;2.00;;;1.23;;
7693;SDS011;3889;48.162;11.510;2023-01-10T03:49:31;1.40;;;1.30;;
7693;SDS011;3889;48.162;11.510;2023-01-10T03:52:02;1.50;;;1.40;;
7693;SDS011;3889;48.162;11.510;2023-01-10T03:54:31;1.38;;;1.20;;
7693;SDS011;3889;48.162;11.510;2023-01-10T03:56:59;1.30;;;1.20;;
7693;SDS011;3889;48.162;11.510;2023-01-10T03:59:28;1.50;;;1.40;;
7693;SDS011;3889;48.162;11.510;2023-01-10T04:01:56;1.60;;;1.50;;
7693;SDS011;3889;48.162;11.510;2023-01-10T04:04:25;1.70;;;1.45;;
7693;SDS011;3889;48.162;11.510;2023-01-10T04:06:52;1.80;;;1.50;;
7693;SDS011;3889;48.162;11.510;2023-01-10T04:09:22;1.70;;;1.40;;
7693;SDS011;3889;48.162;11.510;2023-01-10T04:11:50;1.67;;;1.50;;
7693;SDS011;3889;48.162;11.510;2023-01-10T04:14:18;1.53;;;1.40;;
7693;SDS011;3889;48.162;11.510;2023-01-10T04:16:46;1.70;;;1.60;;
7693;SDS011;3889;48.162;11.510;2023-01-10T04:19:14;1.50;;;1.40;;
7693;SDS011;3889;48.162;11.510;2023-01-10T04:21:42;1.90;;;1.52;;
7693;SDS011;3889;48.162;11.510;2023-01-10T04:24:10;1.92;;;1.50;;
7693;SDS011;3889;48.162;11.510;2023-01-10T04:26:39;2.20;;;2.00;;
7693;SDS011;3889;48.162;11.510;2023-01-10T04:29:07;1.60;;;1.50;;
7693;SDS011;3889;48.162;11.510;2023-01-10T04:31:35;1.70;;;1.60;;
7693;SDS011;3889;48.162;11.510;2023-01-10T04:34:05;1.70;;;1.60;;
7693;SDS011;3889;48.162;11.510;2023-01-10T04:36:33;1.98;;;1.85;;
7693;SDS011;3889;48.162;11.510;2023-01-10T04:39:01;2.17;;;2.00;;
7693;SDS011;3889;48.162;11.510;2023-01-10T04:41:29;1.90;;;1.70;;
7693;SDS011;3889;48.162;11.510;2023-01-10T04:43:58;1.95;;;1.80;;
7693;SDS011;3889;48.162;11.510;2023-01-10T04:46:26;1.70;;;1.60;;
7693;SDS011;3889;48.162;11.510;2023-01-10T04:48:54;1.80;;;1.70;;
7693;SDS011;3889;48.162;11.510;2023-01-10T04:51:23;1.80;;;1.70;;
7693;SDS011;3889;48.162;11.510;2023-01-10T04:53:51;1.70;;;1.60;;
7693;SDS011;3889;48.162;11.510;2023-01-10T04:56:20;1.80;;;1.70;;
7693;SDS011;3889;48.162;11.510;2023-01-10T04:58:49;2.13;;;1.90;;
7693;SDS011;3889;48.162;11.510;2023-01-10T05:01:21;1.90;;;1.80;;
7693;SDS011;3889;48.162;11.510;2023-01-10T05:03:50;2.30;;;2.13;;
7693;SDS011;3889;48.162;11.510;2023-01-10T05:06:20;2.47;;;2.28;;
7693;SDS011;3889;48.162;11.510;2023-01-10T05:08:49;3.08;;;2.28;;
7693;SDS011;3889;48.162;11.510;2023-01-10T05:11:17;1.93;;;1.83;;
7693;SDS011;3889;48.162;11.510;2023-01-10T05:13:45;2.15;;;2.05;;
7693;SDS011;3889;48.162;11.510;2023-01-10T05:16:13;2.25;;;2.03;;
7693;SDS011;3889;48.162;11.510;2023-01-10T05:18:43;2.33;;;2.13;;
7693;SDS011;3889;48.162;11.510;2023-01-10T05:21:12;2.33;;;2.13;;
7693;SDS011;3889;48.162;11.510;2023-01-10T05:23:40;2.03;;;1.92;;
7693;SDS011;3889;48.162;11.510;2023-01-10T05:26:08;2.60;;;2.08;;
7693;SDS011;3889;48.162;11.510;2023-01-10T05:28:38;2.38;;;2.17;;
7693;SDS011;3889;48.162;11.510;2023-01-10T05:31:08;2.30;;;2.20;;
7693;SDS011;3889;48.162;11.510;2023-01-10T05:33:37;2.40;;;2.20;;
7693;SDS011;3889;48.162;11.510;2023-01-10T05:36:07;2.28;;;2.13;;
7693;SDS011;3889;48.162;11.510;2023-01-10T05:38:35;2.30;;;2.10;;
7693;SDS011;3889;48.162;11.510;2023-01-10T05:41:03;2.13;;;2.00;;
7693;SDS011;3889;48.162;11.510;2023-01-10T05:43:31;2.10;;;2.00;;
7693;SDS011;3889;48.162;11.510;2023-01-10T05:45:59;2.40;;;2.00;;
7693;SDS011;3889;48.162;11.510;2023-01-10T05:48:27;2.08;;;1.88;;
7693;SDS011;3889;48.162;11.510;2023-01-10T05:50:55;1.70;;;1.60;;
7693;SDS011;3889;48.162;11.510;2023-01-10T05:53:25;1.70;;;1.60;;
7693;SDS011;3889;48.162;11.510;2023-01-10T05:55:54;2.10;;;1.90;;
7693;SDS011;3889;48.162;11.510;2023-01-10T05:58:24;1.92;;;1.83;;
7693;SDS011;3889;48.162;11.510;2023-01-10T06:00:53;1.92;;;1.83;;
7693;SDS011;3889;48.162;11.510;2023-01-10T06:03:22;1.70;;;1.55;;
7693;SDS011;3889;48.162;11.510;2023-01-10T06:05:50;1.60;;;1.50;;
7693;SDS011;3889;48.162;11.510;2023-01-10T06:08:18;1.50;;;1.40;;
7693;SDS011;3889;48.162;11.510;2023-01-10T06:10:48;2.25;;;1.58;;
7693;SDS011;3889;48.162;11.510;2023-01-10T06:13:17;1.80;;;1.50;;
7693;SDS011;3889;48.162;11.510;2023-01-10T06:15:45;1.60;;;1.50;;
7693;SDS011;3889;48.162;11.510;2023-01-10T06:18:13;1.40;;;1.30;;
7693;SDS011;3889;48.162;11.510;2023-01-10T06:20:42;1.60;;;1.50;;
7693;SDS011;3889;48.162;11.510;2023-01-10T06:23:10;1.65;;;1.55;;
7693;SDS011;3889;48.162;11.510;2023-01-10T06:25:39;1.58;;;1.48;;
7693;SDS011;3889;48.162;11.510;2023-01-10T06:28:08;1.30;;;1.20;;
7693;SDS011;3889;48.162;11.510;2023-01-10T06:30:39;1.67;;;1.40;;
7693;SDS011;3889;48.162;11.510;2023-01-10T06:33:08;1.60;;;1.50;;
7693;SDS011;3889;48.162;11.510;2023-01-10T06:35:37;1.50;;;1.40;;
7693;SDS011;3889;48.162;11.510;2023-01-10T06:38:05;1.40;;;1.30;;
7693;SDS011;3889;48.162;11.510;2023-01-10T06:40:33;1.83;;;1.40;;
7693;SDS011;3889;48.162;11.510;2023-01-10T06:43:01;1.30;;;1.20;;
7693;SDS011;3889;48.162;11.510;2023-01-10T06:45:30;1.50;;;1.40;;
7693;SDS011;3889;48.162;11.510;2023-01-10T06:47:58;1.45;;;1.35;;
7693;SDS011;3889;48.162;11.510;2023-01-10T06:50:26;1.55;;;1.45;;
7693;SDS011;3889;48.162;11.510;2023-01-10T06:52:55;1.50;;;1.30;;
7693;SDS011;3889;48.162;11.510;2023-01-10T06:55:23;1.47;;;1.37;;
7693;SDS011;3889;48.162;11.510;2023-01-10T06:57:55;1.40;;;1.30;;
7693;SDS011;3889;48.162;11.510;2023-01-10T07:00:24;2.00;;;1.40;;
7693;SDS011;3889;48.162;11.510;2023-01-10T07:02:54;1.47;;;1.20;;
7693;SDS011;3889;48.162;11.510;2023-01-10T07:05:24;1.40;;;1.30;;
7693;SDS011;3889;48.162;11.510;2023-01-10T07:07:52;1.48;;;1.38;;
7693;SDS011;3889;48.162;11.510;2023-01-10T07:10:19;1.60;;;1.50;;
7693;SDS011;3889;48.162;11.510;2023-01-10T07:12:47;1.50;;;1.40;;
7693;SDS011;3889;48.162;11.510;2023-01-10T07:15:15;1.50;;;1.40;;
7693;SDS011;3889;48.162;11.510;2023-01-10T07:17:43;1.50;;;1.40;;
7693;SDS011;3889;48.162;11.510;2023-01-10T07:20:12;1.90;;;1.80;;
7693;SDS011;3889;48.162;11.510;2023-01-10T07:22:40;1.58;;;1.48;;
7693;SDS011;3889;48.162;11.510;2023-01-10T07:25:08;2.00;;;1.80;;
7693;SDS011;3889;48.162;11.510;2023-01-10T07:27:36;1.50;;;1.40;;
7693;SDS011;3889;48.162;11.510;2023-01-10T07:30:08;2.27;;;2.00;;
7693;SDS011;3889;48.162;11.510;2023-01-10T07:32:37;2.22;;;1.88;;
7693;SDS011;3889;48.162;11.510;2023-01-10T07:35:05;3.47;;;1.92;;
7693;SDS011;3889;48.162;11.510;2023-01-10T07:37:34;2.10;;;2.00;;
7693;SDS011;3889;48.162;11.510;2023-01-10T07:40:03;2.28;;;2.05;;
7693;SDS011;3889;48.162;11.510;2023-01-10T07:42:31;2.08;;;1.85;;
7693;SDS011;3889;48.162;11.510;2023-01-10T07:44:59;3.53;;;2.40;;
7693;SDS011;3889;48.162;11.510;2023-01-10T07:47:28;2.65;;;2.45;;
7693;SDS011;3889;48.162;11.510;2023-01-10T07:49:56;2.80;;;2.40;;
7693;SDS011;3889;48.162;11.510;2023-01-10T07:52:24;3.72;;;2.60;;
7693;SDS011;3889;48.162;11.510;2023-01-10T07:54:53;3.78;;;2.50;;
7693;SDS011;3889;48.162;11.510;2023-01-10T07:57:20;2.55;;;2.35;;
7693;SDS011;3889;48.162;11.510;2023-01-10T07:59:48;3.50;;;3.20;;
7693;SDS011;3889;48.162;11.510;2023-01-10T08:02:16;3.13;;;2.80;;
7693;SDS011;3889;48.162;11.510;2023-01-10T08:04:44;4.35;;;2.70;;
7693;SDS011;3889;48.162;11.510;2023-01-10T08:07:12;3.13;;;2.83;;
7693;SDS011;3889;48.162;11.510;2023-01-10T08:09:40;3.30;;;3.00;;
7693;SDS011;3889;48.162;11.510;2023-01-10T08:12:09;3.72;;;3.05;;
7693;SDS011;3889;48.162;11.510;2023-01-10T08:14:37;5.50;;;3.10;;
7693;SDS011;3889;48.162;11.510;2023-01-10T08:17:04;3.55;;;2.80;;
7693;SDS011;3889;48.162;11.510;2023-01-10T08:19:32;4.88;;;3.03;;
7693;SDS011;3889;48.162;11.510;2023-01-10T08:22:00;3.53;;;3.23;;
7693;SDS011;3889;48.162;11.510;2023-01-10T08:24:28;4.85;;;3.30;;
7693;SDS011;3889;48.162;11.510;2023-01-10T08:26:56;3.90;;;3.22;;
7693;SDS011;3889;48.162;11.510;2023-01-10T08:29:26;5.30;;;3.60;;
7693;SDS011;3889;48.162;11.510;2023-01-10T08:31:54;5.57;;;3.90;;
7693;SDS011;3889;48.162;11.510;2023-01-10T08:34:22;5.95;;;4.53;;
7693;SDS011;3889;48.162;11.510;2023-01-10T08:36:50;5.97;;;3.30;;
7693;SDS011;3889;48.162;11.510;2023-01-10T08:39:19;4.03;;;3.03;;
7693;SDS011;3889;48.162;11.510;2023-01-10T08:41:47;4.32;;;3.00;;
7693;SDS011;3889;48.162;11.510;2023-01-10T08:44:15;6.35;;;3.25;;
7693;SDS011;3889;48.162;11.510;2023-01-10T08:46:44;3.97;;;2.83;;
7693;SDS011;3889;48.162;11.510;2023-01-10T08:49:12;6.43;;;3.80;;
7693;SDS011;3889;48.162;11.510;2023-01-10T08:51:40;4.80;;;3.13;;
7693;SDS011;3889;48.162;11.510;2023-01-10T08:54:10;4.28;;;3.20;;
7693;SDS011;3889;48.162;11.510;2023-01-10T08:56:38;5.07;;;2.97;;
7693;SDS011;3889;48.162;11.510;2023-01-10T08:59:06;3.63;;;2.10;;
7693;SDS011;3889;48.162;11.510;2023-01-10T09:01:34;3.70;;;2.70;;
7693;SDS011;3889;48.162;11.510;2023-01-10T09:04:03;4.13;;;2.40;;
7693;SDS011;3889;48.162;11.510;2023-01-10T09:06:31;2.65;;;2.00;;
7693;SDS011;3889;48.162;11.510;2023-01-10T09:08:59;3.28;;;2.10;;
7693;SDS011;3889;48.162;11.510;2023-01-10T09:11:27;3.25;;;1.83;;
7693;SDS011;3889;48.162;11.510;2023-01-10T09:13:55;2.65;;;1.83;;
7693;SDS011;3889;48.162;11.510;2023-01-10T09:16:22;2.40;;;1.65;;
7693;SDS011;3889;48.162;11.510;2023-01-10T09:18:50;2.80;;;1.80;;
7693;SDS011;3889;48.162;11.510;2023-01-10T09:21:20;3.20;;;1.70;;
7693;SDS011;3889;48.162;11.510;2023-01-10T09:23:48;3.70;;;2.10;;
7693;SDS011;3889;48.162;11.510;2023-01-10T09:26:16;3.55;;;2.15;;
7693;SDS011;3889;48.162;11.510;2023-01-10T09:28:44;5.88;;;2.50;;
7693;SDS011;3889;48.162;11.510;2023-01-10T09:31:14;3.95;;;2.22;;
7693;SDS011;3889;48.162;11.510;2023-01-10T09:33:42;5.22;;;2.63;;
7693;SDS011;3889;48.162;11.510;2023-01-10T09:36:13;4.65;;;3.20;;
7693;SDS011;3889;48.162;11.510;2023-01-10T09:38:43;4.75;;;2.90;;
7693;SDS011;3889;48.162;11.510;2023-01-10T09:41:15;3.13;;;2.72;;
7693;SDS011;3889;48.162;11.510;2023-01-10T09:43:50;4.60;;;2.73;;
7693;SDS011;3889;48.162;11.510;2023-01-10T09:46:32;4.35;;;3.20;;
7693;SDS011;3889;48.162;11.510;2023-01-10T09:49:14;4.50;;;2.67;;
7693;SDS011;3889;48.162;11.510;2023-01-10T09:51:50;3.75;;;2.80;;
7693;SDS011;3889;48.162;11.510;2023-01-10T09:54:23;4.65;;;2.70;;
7693;SDS011;3889;48.162;11.510;2023-01-10T09:56:55;4.90;;;2.90;;
7693;SDS011;3889;48.162;11.510;2023-01-10T09:59:31;4.13;;;2.77;;
7693;SDS011;3889;48.162;11.510;2023-01-10T10:02:03;3.40;;;2.40;;
7693;SDS011;3889;48.162;11.510;2023-01-10T10:04:52;5.18;;;2.55;;
7693;SDS011;3889;48.162;11.510;2023-01-10T10:07:36;5.32;;;2.80;;
7693;SDS011;3889;48.162;11.510;2023-01-10T10:10:05;6.68;;;2.63;;
7693;SDS011;3889;48.162;11.510;2023-01-10T10:12:40;5.07;;;2.40;;
7693;SDS011;3889;48.162;11.510;2023-01-10T10:15:17;5.82;;;2.60;;
7693;SDS011;3889;48.162;11.510;2023-01-10T10:17:52;6.43;;;2.75;;
7693;SDS011;3889;48.162;11.510;2023-01-10T10:20:37;5.40;;;2.57;;
7693;SDS011;3889;48.162;11.510;2023-01-10T10:23:17;6.82;;;2.50;;
7693;SDS011;3889;48.162;11.510;2023-01-10T10:26:03;4.25;;;2.10;;
7693;SDS011;3889;48.162;11.510;2023-01-10T10:28:51;5.85;;;2.38;;
7693;SDS011;3889;48.162;11.510;2023-01-10T10:31:35;5.05;;;2.20;;
7693;SDS011;3889;48.162;11.510;2023-01-10T10:34:31;5.60;;;2.40;;
7693;SDS011;3889;48.162;11.510;2023-01-10T10:37:02;4.55;;;2.20;;
7693;SDS011;3889;48.162;11.510;2023-01-10T10:39:37;4.40;;;2.27;;
7693;SDS011;3889;48.162;11.510;2023-01-10T10:42:12;4.95;;;1.95;;
7693;SDS011;3889;48.162;11.510;2023-01-10T10:44:44;4.28;;;2.13;;
7693;SDS011;3889;48.162;11.510;2023-01-10T10:47:17;5.63;;;2.20;;
7693;SDS011;3889;48.162;11.510;2023-01-10T10:49:48;5.05;;;2.50;;
7693;SDS011;3889;48.162;11.510;2023-01-10T10:52:22;3.78;;;2.08;;
7693;SDS011;3889;48.162;11.510;2023-01-10T10:54:52;5.60;;;2.10;;
7693;SDS011;3889;48.162;11.510;2023-01-10T10:57:22;5.45;;;2.17;;
7693;SDS011;3889;48.162;11.510;2023-01-10T10:59:54;4.28;;;2.00;;
7693;SDS011;3889;48.162;11.510;2023-01-10T11:02:24;5.82;;;2.25;;
7693;SDS011;3889;48.162;11.510;2023-01-10T11:04:55;5.68;;;2.00;;
7693;SDS011;3889;48.162;11.510;2023-01-10T11:07:27;5.93;;;2.30;;
7693;SDS011;3889;48.162;11.510;2023-01-10T11:09:59;4.32;;;1.92;;
7693;SDS011;3889;48.162;11.510;2023-01-10T11:12:44;5.18;;;1.92;;
7693;SDS011;3889;48.162;11.510;2023-01-10T11:18:04;3.92;;;1.90;;
7693;SDS011;3889;48.162;11.510;2023-01-10T11:20:33;4.20;;;1.80;;
7693;SDS011;3889;48.162;11.510;2023-01-10T11:23:01;7.45;;;2.35;;
7693;SDS011;3889;48.162;11.510;2023-01-10T11:25:30;5.25;;;2.00;;
7693;SDS011;3889;48.162;11.510;2023-01-10T11:28:00;3.63;;;1.52;;
7693;SDS011;3889;48.162;11.510;2023-01-10T11:30:31;5.63;;;1.73;;
7693;SDS011;3889;48.162;11.510;2023-01-10T11:33:02;4.40;;;1.70;;
7693;SDS011;3889;48.162;11.510;2023-01-10T11:35:34;5.80;;;1.90;;
7693;SDS011;3889;48.162;11.510;2023-01-10T11:38:04;3.60;;;2.10;;
7693;SDS011;3889;48.162;11.510;2023-01-10T11:40:34;6.65;;;2.30;;
7693;SDS011;3889;48.162;11.510;2023-01-10T11:45:56;5.27;;;2.30;;
7693;SDS011;3889;48.162;11.510;2023-01-10T11:48:32;5.35;;;2.00;;
7693;SDS011;3889;48.162;11.510;2023-01-10T11:51:30;5.63;;;2.22;;
7693;SDS011;3889;48.162;11.510;2023-01-10T11:54:02;4.25;;;1.90;;
7693;SDS011;3889;48.162;11.510;2023-01-10T11:56:33;6.57;;;2.30;;
7693;SDS011;3889;48.162;11.510;2023-01-10T11:59:07;5.35;;;2.17;;
7693;SDS011;3889;48.162;11.510;2023-01-10T12:01:38;5.10;;;2.10;;
7693;SDS011;3889;48.162;11.510;2023-01-10T12:04:12;6.72;;;2.17;;
7693;SDS011;3889;48.162;11.510;2023-01-10T12:06:42;4.90;;;2.20;;
7693;SDS011;3889;48.162;11.510;2023-01-10T12:12:11;4.60;;;2.00;;
7693;SDS011;3889;48.162;11.510;2023-01-10T12:14:44;5.75;;;2.20;;
7693;SDS011;3889;48.162;11.510;2023-01-10T12:17:17;5.95;;;2.20;;
7693;SDS011;3889;48.162;11.510;2023-01-10T12:19:49;5.25;;;2.20;;
7693;SDS011;3889;48.162;11.510;2023-01-10T12:22:19;3.92;;;2.10;;
7693;SDS011;3889;48.162;11.510;2023-01-10T12:24:50;3.95;;;1.70;;
7693;SDS011;3889;48.162;11.510;2023-01-10T12:27:20;5.88;;;2.38;;
7693;SDS011;3889;48.162;11.510;2023-01-10T12:29:52;5.07;;;2.20;;
7693;SDS011;3889;48.162;11.510;2023-01-10T12:32:28;5.45;;;2.22;;
7693;SDS011;3889;48.162;11.510;2023-01-10T12:35:13;4.65;;;2.00;;
7693;SDS011;3889;48.162;11.510;2023-01-10T12:37:45;4.93;;;1.60;;
7693;SDS011;3889;48.162;11.510;2023-01-10T12:40:19;4.68;;;2.00;;
7693;SDS011;3889;48.162;11.510;2023-01-10T12:42:57;6.47;;;1.98;;
7693;SDS011;3889;48.162;11.510;2023-01-10T12:45:49;5.70;;;2.17;;
7693;SDS011;3889;48.162;11.510;2023-01-10T12:48:21;5.40;;;1.92;;
7693;SDS011;3889;48.162;11.510;2023-01-10T12:50:54;5.50;;;2.15;;
7693;SDS011;3889;48.162;11.510;2023-01-10T12:53:30;4.32;;;2.17;;
7693;SDS011;3889;48.162;11.510;2023-01-10T12:56:02;3.72;;;2.00;;
7693;SDS011;3889;48.162;11.510;2023-01-10T12:58:34;4.07;;;2.00;;
7693;SDS011;3889;48.162;11.510;2023-01-10T13:01:11;5.20;;;1.90;;
7693;SDS011;3889;48.162;11.510;2023-01-10T13:03:43;4.70;;;1.83;;
7693;SDS011;3889;48.162;11.510;2023-01-10T13:06:15;5.87;;;1.90;;
7693;SDS011;3889;48.162;11.510;2023-01-10T13:08:51;4.70;;;2.13;;
7693;SDS011;3889;48.162;11.510;2023-01-10T13:11:19;4.47;;;1.98;;
7693;SDS011;3889;48.162;11.510;2023-01-10T13:13:51;5.82;;;2.08;;
7693;SDS011;3889;48.162;11.510;2023-01-10T13:16:26;5.07;;;1.80;;
7693;SDS011;3889;48.162;11.510;2023-01-10T13:19:00;5.30;;;2.10;;
7693;SDS011;3889;48.162;11.510;2023-01-10T13:21:31;6.30;;;2.13;;
7693;SDS011;3889;48.162;11.510;2023-01-10T13:24:00;5.80;;;2.00;;
7693;SDS011;3889;48.162;11.510;2023-01-10T13:26:47;3.45;;;1.55;;
7693;SDS011;3889;48.162;11.510;2023-01-10T13:29:18;5.47;;;2.00;;
7693;SDS011;3889;48.162;11.510;2023-01-10T13:31:50;6.40;;;1.90;;
7693;SDS011;3889;48.162;11.510;2023-01-10T13:34:25;4.88;;;2.00;;
7693;SDS011;3889;48.162;11.510;2023-01-10T13:36:59;4.57;;;1.67;;
7693;SDS011;3889;48.162;11.510;2023-01-10T13:39:36;4.43;;;1.80;;
7693;SDS011;3889;48.162;11.510;2023-01-10T13:42:10;3.77;;;1.80;;
7693;SDS011;3889;48.162;11.510;2023-01-10T13:45:16;4.28;;;1.90;;
7693;SDS011;3889;48.162;11.510;2023-01-10T13:47:57;5.13;;;2.00;;
7693;SDS011;3889;48.162;11.510;2023-01-10T13:53:40;4.25;;;1.83;;
7693;SDS011;3889;48.162;11.510;2023-01-10T13:56:33;5.80;;;2.20;;
7693;SDS011;3889;48.162;11.510;2023-01-10T13:59:03;5.65;;;2.20;;
7693;SDS011;3889;48.162;11.510;2023-01-10T14:01:54;4.25;;;1.70;;
7693;SDS011;3889;48.162;11.510;2023-01-10T14:04:48;4.13;;;1.75;;
7693;SDS011;3889;48.162;11.510;2023-01-10T14:07:23;5.28;;;2.10;;
7693;SDS011;3889;48.162;11.510;2023-01-10T14:09:57;3.30;;;1.70;;
7693;SDS011;3889;48.162;11.510;2023-01-10T14:12:30;4.38;;;2.00;;
7693;SDS011;3889;48.162;11.510;2023-01-10T14:15:03;3.50;;;1.90;;
7693;SDS011;3889;48.162;11.510;2023-01-10T14:17:35;4.70;;;1.80;;
7693;SDS011;3889;48.162;11.510;2023-01-10T14:20:12;5.32;;;1.80;;
7693;SDS011;3889;48.162;11.510;2023-01-10T14:22:55;4.43;;;1.90;;
7693;SDS011;3889;48.162;11.510;2023-01-10T14:25:35;5.32;;;1.90;;
7693;SDS011;3889;48.162;11.510;2023-01-10T14:28:04;4.50;;;1.98;;
7693;SDS011;3889;48.162;11.510;2023-01-10T14:30:42;4.13;;;2.10;;
7693;SDS011;3889;48.162;11.510;2023-01-10T14:33:18;3.28;;;1.80;;
7693;SDS011;3889;48.162;11.510;2023-01-10T14:35:50;4.72;;;1.90;;
7693;SDS011;3889;48.162;11.510;2023-01-10T14:38:22;5.30;;;2.15;;
7693;SDS011;3889;48.162;11.510;2023-01-10T14:40:54;5.32;;;2.10;;
7693;SDS011;3889;48.162;11.510;2023-01-10T14:43:26;4.13;;;1.80;;
7693;SDS011;3889;48.162;11.510;2023-01-10T14:45:59;5.45;;;2.10;;
7693;SDS011;3889;48.162;11.510;2023-01-10T14:48:32;5.27;;;1.90;;
7693;SDS011;3889;48.162;11.510;2023-01-10T14:51:19;4.65;;;1.98;;
7693;SDS011;3889;48.162;11.510;2023-01-10T14:53:56;3.17;;;1.90;;
7693;SDS011;3889;48.162;11.510;2023-01-10T14:56:25;4.70;;;1.80;;
7693;SDS011;3889;48.162;11.510;2023-01-10T14:58:55;3.22;;;1.90;;
7693;SDS011;3889;48.162;11.510;2023-01-10T15:01:24;4.72;;;2.05;;
7693;SDS011;3889;48.162;11.510;2023-01-10T15:03:54;4.05;;;1.90;;
7693;SDS011;3889;48.162;11.510;2023-01-10T15:06:25;3.20;;;1.70;;
7693;SDS011;3889;48.162;11.510;2023-01-10T15:08:56;3.05;;;1.60;;
7693;SDS011;3889;48.162;11.510;2023-01-10T15:11:25;4.68;;;1.95;;
7693;SDS011;3889;48.162;11.510;2023-01-10T15:13:55;3.47;;;1.85;;
7693;SDS011;3889;48.162;11.510;2023-01-10T15:16:28;2.65;;;1.60;;
7693;SDS011;3889;48.162;11.510;2023-01-10T15:18:57;4.47;;;2.00;;
7693;SDS011;3889;48.162;11.510;2023-01-10T15:21:26;5.68;;;2.00;;
7693;SDS011;3889;48.162;11.510;2023-01-10T15:23:54;3.45;;;1.90;;
7693;SDS011;3889;48.162;11.510;2023-01-10T15:26:25;5.47;;;2.00;;
7693;SDS011;3889;48.162;11.510;2023-01-10T15:29:01;5.88;;;2.33;;
7693;SDS011;3889;48.162;11.510;2023-01-10T15:31:38;4.43;;;2.00;;
7693;SDS011;3889;48.162;11.510;2023-01-10T15:34:08;4.65;;;2.20;;
7693;SDS011;3889;48.162;11.510;2023-01-10T15:36:42;4.13;;;2.15;;
7693;SDS011;3889;48.162;11.510;2023-01-10T15:39:18;6.70;;;2.25;;
7693;SDS011;3889;48.162;11.510;2023-01-10T15:41:48;4.30;;;2.20;;
7693;SDS011;3889;48.162;11.510;2023-01-10T15:44:21;3.25;;;1.80;;